createdAt,value
2023-03-31T00:02:13.261Z,19.40
2023-03-31T00:04:45.933Z,19.40
2023-03-31T00:07:14.448Z,20.10
2023-03-31T00:09:45.930Z,19.40
2023-03-31T00:12:17.487Z,19.30
2023-03-31T00:14:44.369Z,19.30
2023-03-31T00:17:11.330Z,19.40
2023-03-31T00:19:40.049Z,19.30
2023-03-31T00:22:06.852Z,19.30
2023-03-31T00:24:34.511Z,19.30
2023-03-31T00:27:05.320Z,19.30
2023-03-31T00:29:33.544Z,19.30
2023-03-31T00:32:00.388Z,19.30
2023-03-31T00:34:27.854Z,19.30
2023-03-31T00:36:56.519Z,19.30
2023-03-31T00:39:24.644Z,19.30
2023-03-31T00:41:51.812Z,19.30
2023-03-31T00:44:25.343Z,19.30
2023-03-31T00:46:56.946Z,19.30
2023-03-31T00:49:30.253Z,19.30
2023-03-31T00:52:23.345Z,19.30
2023-03-31T00:54:55.372Z,19.20
2023-03-31T00:57:23.897Z,19.30
2023-03-31T00:59:56.718Z,19.30
2023-03-31T01:02:27.524Z,19.30
2023-03-31T01:05:02.017Z,19.30
2023-03-31T01:07:39.267Z,19.30
2023-03-31T01:10:06.521Z,19.30
2023-03-31T01:12:36.773Z,19.30
2023-03-31T01:15:04.970Z,19.30
2023-03-31T01:17:32.241Z,19.30
2023-03-31T01:19:58.904Z,19.30
2023-03-31T01:22:52.967Z,19.30
2023-03-31T01:25:38.757Z,19.30
2023-03-31T01:28:05.843Z,19.30
2023-03-31T01:30:52.765Z,19.30
2023-03-31T01:33:52.439Z,19.20
2023-03-31T01:36:46.688Z,19.30
2023-03-31T01:39:34.016Z,19.20
2023-03-31T01:42:03.967Z,19.30
2023-03-31T01:44:46.068Z,19.30
2023-03-31T01:47:40.682Z,19.30
2023-03-31T01:50:25.299Z,19.30
2023-03-31T01:52:55.996Z,19.20
2023-03-31T01:55:39.418Z,19.20
2023-03-31T01:58:28.862Z,19.20
2023-03-31T02:01:03.543Z,19.30
2023-03-31T02:03:37.097Z,19.20
2023-03-31T02:06:12.382Z,19.20
2023-03-31T02:08:45.234Z,19.20
2023-03-31T02:11:13.179Z,19.20
2023-03-31T02:13:44.417Z,19.20
2023-03-31T02:16:18.820Z,19.20
2023-03-31T02:18:48.185Z,19.20
2023-03-31T02:21:16.388Z,19.20
2023-03-31T02:23:45.302Z,19.20
2023-03-31T02:26:20.588Z,19.20
2023-03-31T02:28:47.230Z,19.20
2023-03-31T02:31:38.396Z,19.20
2023-03-31T02:34:05.780Z,19.30
2023-03-31T02:36:33.866Z,19.20
2023-03-31T02:39:10.576Z,19.20
2023-03-31T02:41:38.171Z,19.20
2023-03-31T02:44:04.874Z,19.20
2023-03-31T02:46:32.294Z,19.20
2023-03-31T02:49:02.702Z,19.20
2023-03-31T02:51:39.064Z,19.20
2023-03-31T02:54:33.863Z,19.30
2023-03-31T02:57:37.987Z,19.20
2023-03-31T03:00:07.877Z,19.20
2023-03-31T03:02:46.621Z,19.20
2023-03-31T03:05:45.645Z,19.20
2023-03-31T03:08:36.678Z,19.30
2023-03-31T03:11:07.947Z,19.30
2023-03-31T03:13:51.429Z,19.30
2023-03-31T03:16:41.396Z,19.30
2023-03-31T03:19:08.695Z,19.20
2023-03-31T03:21:35.645Z,19.20
2023-03-31T03:24:02.386Z,19.20
2023-03-31T03:26:29.320Z,19.20
2023-03-31T03:28:56.935Z,19.30
2023-03-31T03:31:26.197Z,19.20
2023-03-31T03:33:53.450Z,19.20
2023-03-31T03:36:20.560Z,19.20
2023-03-31T03:38:47.217Z,19.20
2023-03-31T03:41:13.946Z,19.20
2023-03-31T03:43:40.863Z,19.30
2023-03-31T03:46:07.708Z,19.10
2023-03-31T03:48:34.498Z,19.20
2023-03-31T03:51:01.819Z,19.20
2023-03-31T03:53:28.845Z,19.20
2023-03-31T03:55:55.564Z,19.20
2023-03-31T03:58:22.255Z,19.20
2023-03-31T04:00:49.197Z,19.20
2023-03-31T04:03:16.451Z,19.20
2023-03-31T04:05:43.303Z,19.30
2023-03-31T04:08:10.145Z,19.20
2023-03-31T04:10:37.979Z,19.20
2023-03-31T04:13:04.585Z,19.30
2023-03-31T04:15:31.226Z,19.30
2023-03-31T04:17:58.186Z,19.20
2023-03-31T04:20:27.758Z,19.30
2023-03-31T04:22:54.612Z,19.20
2023-03-31T04:25:22.648Z,19.20
2023-03-31T04:27:54.476Z,19.10
2023-03-31T04:30:30.740Z,19.20
2023-03-31T04:33:00.432Z,19.20
2023-03-31T04:35:49.288Z,19.20
2023-03-31T04:38:23.975Z,19.20
2023-03-31T04:40:52.079Z,19.10
2023-03-31T04:43:20.192Z,19.20
2023-03-31T04:45:47.141Z,19.20
2023-03-31T04:48:13.788Z,19.30
2023-03-31T04:50:40.573Z,19.30
2023-03-31T04:53:07.236Z,19.30
2023-03-31T04:55:34.635Z,19.30
2023-03-31T04:58:01.615Z,19.20
2023-03-31T05:00:28.960Z,19.30
2023-03-31T05:02:56.866Z,19.10
2023-03-31T05:05:23.621Z,19.10
2023-03-31T05:07:50.223Z,19.00
2023-03-31T05:10:16.963Z,19.00
2023-03-31T05:12:43.624Z,19.00
2023-03-31T05:15:10.657Z,19.00
2023-03-31T05:17:37.982Z,19.00
2023-03-31T05:20:06.794Z,19.00
2023-03-31T05:22:37.856Z,19.00
2023-03-31T05:25:06.916Z,19.00
2023-03-31T05:27:35.533Z,19.00
2023-03-31T05:30:03.955Z,19.00
2023-03-31T05:32:30.837Z,19.00
2023-03-31T05:34:57.689Z,19.00
2023-03-31T05:37:25.899Z,19.00
2023-03-31T05:39:53.143Z,19.00
2023-03-31T05:42:20.359Z,19.00
2023-03-31T05:44:47.057Z,19.10
2023-03-31T05:47:13.812Z,19.00
2023-03-31T05:49:40.532Z,19.00
2023-03-31T05:52:08.183Z,19.00
2023-03-31T05:54:35.157Z,19.00
2023-03-31T05:57:01.903Z,19.00
2023-03-31T05:59:28.602Z,19.10
2023-03-31T06:01:55.440Z,19.10
2023-03-31T06:04:22.225Z,19.10
2023-03-31T06:06:50.163Z,19.10
2023-03-31T06:09:17.838Z,19.10
2023-03-31T06:11:44.590Z,19.10
2023-03-31T06:14:11.636Z,19.10
2023-03-31T06:16:38.347Z,19.10
2023-03-31T06:19:05.222Z,19.10
2023-03-31T06:21:31.906Z,19.10
2023-03-31T06:24:00.226Z,19.10
2023-03-31T06:26:27.414Z,19.10
2023-03-31T06:28:54.212Z,19.10
2023-03-31T06:31:23.672Z,19.10
2023-03-31T06:33:50.827Z,19.10
2023-03-31T06:36:20.230Z,19.20
2023-03-31T06:38:47.015Z,19.20
2023-03-31T06:41:15.155Z,19.20
2023-03-31T06:43:42.178Z,19.20
2023-03-31T06:46:09.480Z,19.30
2023-03-31T06:48:36.948Z,19.30
2023-03-31T06:51:06.607Z,19.30
2023-03-31T06:53:33.822Z,19.30
2023-03-31T06:56:01.084Z,19.30
2023-03-31T06:58:30.609Z,19.30
2023-03-31T07:00:58.281Z,19.30
2023-03-31T07:03:25.567Z,19.20
2023-03-31T07:05:54.078Z,19.30
2023-03-31T07:08:21.612Z,19.30
2023-03-31T07:10:50.341Z,19.40
2023-03-31T07:13:18.084Z,19.30
2023-03-31T07:15:47.968Z,19.30
2023-03-31T07:18:15.792Z,19.30
2023-03-31T07:20:43.580Z,19.30
2023-03-31T07:23:10.832Z,19.30
2023-03-31T07:25:37.592Z,19.40
2023-03-31T07:28:05.910Z,19.40
2023-03-31T07:30:32.879Z,19.30
2023-03-31T07:32:59.812Z,19.30
2023-03-31T07:35:26.552Z,19.30
2023-03-31T07:37:53.841Z,19.30
2023-03-31T07:40:26.998Z,19.40
2023-03-31T07:42:54.168Z,19.40
2023-03-31T07:45:22.599Z,19.40
2023-03-31T07:47:49.569Z,19.40
2023-03-31T07:50:17.278Z,19.40
2023-03-31T07:52:46.917Z,19.40
2023-03-31T07:55:14.605Z,19.40
2023-03-31T07:57:42.065Z,19.40
2023-03-31T08:00:12.173Z,19.40
2023-03-31T08:02:39.983Z,19.40
2023-03-31T08:05:07.386Z,19.40
2023-03-31T08:07:39.602Z,19.40
2023-03-31T08:10:10.509Z,19.40
2023-03-31T08:12:37.122Z,19.40
2023-03-31T08:15:04.972Z,19.40
2023-03-31T08:17:31.697Z,19.40
2023-03-31T08:20:01.272Z,19.40
2023-03-31T08:22:30.464Z,19.40
2023-03-31T08:24:57.097Z,19.40
2023-03-31T08:27:24.107Z,19.40
2023-03-31T08:29:50.737Z,19.40
2023-03-31T08:32:17.395Z,19.40
2023-03-31T08:34:45.168Z,19.40
2023-03-31T08:37:11.796Z,19.40
2023-03-31T08:39:38.954Z,19.40
2023-03-31T08:42:16.580Z,19.40
2023-03-31T08:44:50.621Z,19.40
2023-03-31T08:47:21.351Z,19.30
2023-03-31T08:49:58.332Z,19.40
2023-03-31T08:52:31.568Z,19.40
2023-03-31T08:55:01.422Z,19.40
2023-03-31T08:57:45.448Z,19.40
2023-03-31T09:00:17.451Z,19.40
2023-03-31T09:02:55.501Z,19.40
2023-03-31T09:05:31.010Z,19.40
2023-03-31T09:08:13.408Z,19.40
2023-03-31T09:11:06.456Z,19.40
2023-03-31T09:13:55.687Z,19.40
2023-03-31T09:16:46.934Z,19.40
2023-03-31T09:19:24.162Z,19.40
2023-03-31T09:21:55.362Z,19.40
2023-03-31T09:24:32.851Z,19.40
2023-03-31T09:27:07.068Z,19.40
2023-03-31T09:29:51.616Z,19.40
2023-03-31T09:32:24.500Z,19.40
2023-03-31T09:34:58.661Z,19.40
2023-03-31T09:37:29.978Z,19.40
2023-03-31T09:40:07.354Z,19.40
2023-03-31T09:42:35.648Z,19.40
2023-03-31T09:45:03.064Z,19.40
2023-03-31T09:47:38.967Z,19.40
2023-03-31T09:50:07.639Z,19.50
2023-03-31T09:52:51.801Z,19.50
2023-03-31T09:55:39.614Z,19.50
2023-03-31T09:58:08.397Z,19.50
2023-03-31T10:00:36.359Z,19.50
2023-03-31T10:03:07.542Z,19.50
2023-03-31T10:05:58.853Z,19.50
2023-03-31T10:08:42.231Z,19.50
2023-03-31T10:11:12.020Z,19.50
2023-03-31T10:13:43.266Z,19.50
2023-03-31T10:16:14.533Z,19.50
2023-03-31T10:18:43.597Z,19.50
2023-03-31T10:21:23.569Z,19.50
2023-03-31T10:23:51.368Z,19.50
2023-03-31T10:26:25.768Z,19.60
2023-03-31T10:28:55.100Z,19.60
2023-03-31T10:31:27.621Z,20.10
2023-03-31T10:33:55.960Z,19.60
2023-03-31T10:36:26.440Z,19.60
2023-03-31T10:38:54.064Z,19.50
2023-03-31T10:41:30.974Z,19.50
2023-03-31T10:43:59.758Z,19.50
2023-03-31T10:46:42.211Z,19.60
2023-03-31T10:49:21.129Z,19.50
2023-03-31T10:51:57.469Z,19.50
2023-03-31T10:54:24.499Z,19.60
2023-03-31T10:56:54.706Z,19.50
2023-03-31T10:59:52.306Z,19.60
2023-03-31T11:02:42.785Z,19.50
2023-03-31T11:05:36.112Z,19.50
2023-03-31T11:08:22.028Z,19.50
2023-03-31T11:11:16.221Z,19.60
2023-03-31T11:14:04.686Z,19.50
2023-03-31T11:16:50.109Z,19.60
2023-03-31T11:19:56.129Z,19.60
2023-03-31T11:22:40.911Z,20.50
2023-03-31T11:25:32.204Z,19.70
2023-03-31T11:28:23.059Z,19.70
2023-03-31T11:30:58.397Z,19.80
2023-03-31T11:33:24.977Z,19.70
2023-03-31T11:36:16.891Z,19.70
2023-03-31T11:39:09.498Z,19.80
2023-03-31T11:41:49.221Z,19.80
2023-03-31T11:44:18.212Z,19.70
2023-03-31T11:47:02.235Z,19.80
2023-03-31T11:49:38.804Z,20.00
2023-03-31T11:52:17.558Z,19.90
2023-03-31T11:54:55.564Z,19.90
2023-03-31T11:57:29.943Z,19.90
2023-03-31T12:00:07.244Z,19.80
2023-03-31T12:02:59.531Z,19.80
2023-03-31T12:05:28.390Z,19.80
2023-03-31T12:08:12.091Z,19.90
2023-03-31T12:10:45.285Z,19.90
2023-03-31T12:13:24.913Z,19.90
2023-03-31T12:16:13.019Z,19.90
2023-03-31T12:18:54.415Z,19.90
2023-03-31T12:21:23.514Z,19.90
2023-03-31T12:23:50.406Z,19.90
2023-03-31T12:26:36.752Z,19.90
2023-03-31T12:29:26.888Z,19.90
2023-03-31T12:31:59.465Z,19.90
2023-03-31T12:34:28.155Z,19.90
2023-03-31T12:37:23.361Z,19.90
2023-03-31T12:40:05.146Z,19.90
2023-03-31T12:42:55.713Z,19.90
2023-03-31T12:45:31.155Z,19.90
2023-03-31T12:48:32.222Z,19.90
2023-03-31T12:51:38.310Z,19.90
2023-03-31T12:54:42.076Z,19.90
2023-03-31T12:57:08.776Z,19.90
2023-03-31T12:59:41.390Z,19.90
2023-03-31T13:02:16.821Z,19.90
2023-03-31T13:04:44.391Z,19.90
2023-03-31T13:07:38.532Z,19.90
2023-03-31T13:10:14.311Z,19.90
2023-03-31T13:12:41.376Z,19.90
2023-03-31T13:15:14.351Z,20.00
2023-03-31T13:17:42.062Z,20.00
2023-03-31T13:20:32.172Z,20.00
2023-03-31T13:23:22.050Z,20.00
2023-03-31T13:25:52.278Z,20.00
2023-03-31T13:28:21.760Z,20.00
2023-03-31T13:31:10.264Z,20.00
2023-03-31T13:33:58.143Z,19.90
2023-03-31T13:36:34.289Z,19.90
2023-03-31T13:39:45.870Z,19.90
2023-03-31T13:42:30.654Z,20.00
2023-03-31T13:45:33.464Z,20.00
2023-03-31T13:48:22.918Z,20.00
2023-03-31T13:51:12.629Z,20.00
2023-03-31T13:54:03.269Z,20.00
2023-03-31T13:56:59.935Z,20.00
2023-03-31T13:59:47.143Z,20.00
2023-03-31T14:02:44.707Z,20.00
2023-03-31T14:05:36.146Z,20.00
2023-03-31T14:08:11.934Z,20.00
2023-03-31T14:10:42.081Z,20.00
2023-03-31T14:13:19.115Z,20.00
2023-03-31T14:15:55.951Z,19.90
2023-03-31T14:18:33.996Z,20.00
2023-03-31T14:21:13.419Z,20.00
2023-03-31T14:24:18.335Z,20.00
2023-03-31T14:26:58.408Z,20.00
2023-03-31T14:29:34.609Z,20.10
2023-03-31T14:32:26.130Z,20.00
2023-03-31T14:35:23.705Z,20.10
2023-03-31T14:37:51.055Z,20.20
2023-03-31T14:40:18.830Z,20.20
2023-03-31T14:42:49.595Z,20.10
2023-03-31T14:45:25.766Z,20.10
2023-03-31T14:47:57.839Z,20.10
2023-03-31T14:50:45.914Z,20.10
2023-03-31T14:53:24.028Z,20.10
2023-03-31T14:55:58.675Z,20.20
2023-03-31T14:58:34.859Z,20.10
2023-03-31T15:01:04.746Z,20.10
2023-03-31T15:03:33.873Z,20.10
2023-03-31T15:06:02.949Z,20.10
2023-03-31T15:08:31.783Z,20.20
2023-03-31T15:11:11.872Z,20.10
2023-03-31T15:13:52.949Z,20.20
2023-03-31T15:16:42.062Z,20.20
2023-03-31T15:19:22.625Z,20.10
2023-03-31T15:22:02.136Z,20.10
2023-03-31T15:24:30.150Z,20.10
2023-03-31T15:27:08.992Z,20.00
2023-03-31T15:29:51.939Z,20.10
2023-03-31T15:32:27.600Z,20.10
2023-03-31T15:34:55.564Z,20.10
2023-03-31T15:37:27.616Z,20.00
2023-03-31T15:40:00.386Z,20.00
2023-03-31T15:42:28.335Z,20.00
2023-03-31T15:44:58.036Z,20.00
2023-03-31T15:47:32.040Z,20.00
2023-03-31T15:50:13.087Z,20.00
2023-03-31T15:52:47.981Z,20.00
2023-03-31T15:55:24.905Z,20.00
2023-03-31T15:57:52.826Z,20.00
2023-03-31T16:00:34.415Z,20.00
2023-03-31T16:03:03.843Z,20.00
2023-03-31T16:05:55.328Z,20.00
2023-03-31T16:11:55.428Z,20.10
2023-03-31T16:14:38.782Z,20.10
2023-03-31T16:17:11.200Z,20.10
2023-03-31T16:19:48.867Z,20.10
2023-03-31T16:22:24.247Z,20.10
2023-03-31T16:24:51.675Z,20.10
2023-03-31T16:27:18.697Z,20.10
2023-03-31T16:29:45.672Z,20.10
2023-03-31T16:32:15.307Z,20.00
2023-03-31T16:35:00.194Z,20.10
2023-03-31T16:37:27.556Z,20.00
2023-03-31T16:39:54.636Z,20.00
2023-03-31T16:42:21.385Z,20.00
2023-03-31T16:44:59.974Z,20.00
2023-03-31T16:47:35.803Z,19.90
2023-03-31T16:50:07.016Z,19.90
2023-03-31T16:52:33.718Z,20.00
2023-03-31T16:55:01.255Z,20.00
2023-03-31T16:57:28.107Z,20.00
2023-03-31T16:59:57.347Z,20.00
2023-03-31T17:02:25.344Z,20.00
2023-03-31T17:04:54.202Z,20.00
2023-03-31T17:07:23.283Z,20.00
2023-03-31T17:09:49.878Z,20.00
2023-03-31T17:12:16.598Z,20.00
2023-03-31T17:14:43.301Z,20.00
2023-03-31T17:17:10.082Z,20.00
2023-03-31T17:19:36.871Z,20.00
2023-03-31T17:22:03.797Z,20.00
2023-03-31T17:24:30.385Z,20.00
2023-03-31T17:26:57.593Z,19.90
2023-03-31T17:29:24.724Z,20.00
2023-03-31T17:31:51.452Z,20.00
2023-03-31T17:34:18.241Z,20.00
2023-03-31T17:36:44.945Z,19.90
2023-03-31T17:39:11.948Z,19.90
2023-03-31T17:41:38.643Z,19.90
2023-03-31T17:44:07.650Z,19.90
2023-03-31T17:46:34.790Z,19.90
2023-03-31T17:49:01.500Z,19.90
2023-03-31T17:51:28.715Z,19.90
2023-03-31T17:53:56.152Z,19.90
2023-03-31T17:56:22.801Z,19.90
2023-03-31T17:58:49.416Z,19.90
2023-03-31T18:01:16.218Z,19.90
2023-03-31T18:03:44.882Z,19.90
2023-03-31T18:06:13.997Z,19.80
2023-03-31T18:08:41.866Z,19.90
2023-03-31T18:11:09.321Z,20.00
2023-03-31T18:13:37.009Z,20.10
2023-03-31T18:16:05.082Z,20.00
2023-03-31T18:18:32.502Z,20.00
2023-03-31T18:21:04.108Z,19.90
2023-03-31T18:23:31.938Z,19.90
2023-03-31T18:25:58.606Z,19.90
2023-03-31T18:28:25.385Z,19.80
2023-03-31T18:30:53.167Z,19.80
2023-03-31T18:33:20.109Z,19.80
2023-03-31T18:35:46.909Z,19.80
2023-03-31T18:38:13.906Z,19.80
2023-03-31T18:40:48.555Z,19.80
2023-03-31T18:43:15.486Z,19.80
2023-03-31T18:45:42.092Z,19.80
2023-03-31T18:48:08.922Z,19.80
2023-03-31T18:50:35.886Z,19.80
2023-03-31T18:53:03.421Z,19.80
2023-03-31T18:55:30.260Z,19.80
2023-03-31T18:57:57.882Z,19.80
2023-03-31T19:00:24.537Z,19.70
2023-03-31T19:02:51.863Z,19.80
2023-03-31T19:05:18.936Z,18.50
2023-03-31T19:07:45.763Z,19.80
2023-03-31T19:10:12.460Z,19.80
2023-03-31T19:12:39.211Z,19.70
2023-03-31T19:15:07.002Z,19.80
2023-03-31T19:17:33.642Z,19.80
2023-03-31T19:20:00.552Z,19.80
2023-03-31T19:22:27.654Z,19.70
2023-03-31T19:24:54.322Z,19.70
2023-03-31T19:27:20.975Z,19.80
2023-03-31T19:29:47.585Z,19.70
2023-03-31T19:32:14.353Z,19.80
2023-03-31T19:34:44.895Z,19.70
2023-03-31T19:37:11.926Z,19.70
2023-03-31T19:39:38.675Z,19.70
2023-03-31T19:42:05.598Z,19.80
2023-03-31T19:44:32.194Z,19.80
2023-03-31T19:46:59.153Z,19.80
2023-03-31T19:49:26.705Z,19.90
2023-03-31T19:51:53.426Z,20.00
2023-03-31T19:54:20.361Z,20.00
2023-03-31T19:56:47.505Z,19.80
2023-03-31T19:59:14.189Z,19.80
2023-03-31T20:01:41.240Z,19.70
2023-03-31T20:04:08.364Z,19.60
2023-03-31T20:06:35.122Z,19.70
2023-03-31T20:09:03.593Z,19.70
2023-03-31T20:11:31.979Z,19.70
2023-03-31T20:13:59.324Z,19.70
2023-03-31T20:16:28.034Z,19.70
2023-03-31T20:19:04.386Z,19.70
2023-03-31T20:21:36.917Z,19.70
2023-03-31T20:24:04.386Z,19.70
2023-03-31T20:26:32.848Z,19.70
2023-03-31T20:29:02.437Z,19.70
2023-03-31T20:31:32.375Z,19.60
2023-03-31T20:33:59.099Z,19.60
2023-03-31T20:36:31.436Z,19.60
2023-03-31T20:38:59.597Z,19.60
2023-03-31T20:41:28.054Z,19.60
2023-03-31T20:43:55.915Z,19.60
2023-03-31T20:46:23.347Z,19.60
2023-03-31T20:48:53.314Z,19.60
2023-03-31T20:51:22.586Z,19.60
2023-03-31T20:53:52.663Z,19.60
2023-03-31T20:56:23.092Z,19.60
2023-03-31T20:58:50.818Z,19.60
2023-03-31T21:01:18.247Z,19.60
2023-03-31T21:03:45.695Z,19.60
2023-03-31T21:06:14.629Z,19.60
2023-03-31T21:08:42.759Z,19.60
2023-03-31T21:11:09.838Z,19.50
2023-03-31T21:13:37.015Z,19.60
2023-03-31T21:16:05.056Z,19.60
2023-03-31T21:18:33.233Z,19.60
2023-03-31T21:21:05.833Z,19.50
2023-03-31T21:23:32.670Z,19.60
2023-03-31T21:26:02.054Z,19.60
2023-03-31T21:28:31.445Z,19.60
2023-03-31T21:31:01.666Z,19.50
2023-03-31T21:33:29.550Z,19.60
2023-03-31T21:35:56.452Z,19.50
2023-03-31T21:38:23.275Z,19.60
2023-03-31T21:40:52.238Z,19.50
2023-03-31T21:43:23.695Z,19.50
2023-03-31T21:45:53.240Z,19.50
2023-03-31T21:48:25.222Z,19.50
2023-03-31T21:50:54.498Z,19.50
2023-03-31T21:53:22.662Z,19.50
2023-03-31T21:55:55.199Z,19.50
2023-03-31T21:58:27.402Z,19.50
2023-03-31T22:00:58.489Z,19.50
2023-03-31T22:03:28.477Z,19.50
2023-03-31T22:05:59.121Z,19.50
2023-03-31T22:08:27.162Z,19.50
2023-03-31T22:10:54.885Z,19.50
2023-03-31T22:13:22.512Z,19.50
2023-03-31T22:15:49.549Z,19.50
2023-03-31T22:18:16.990Z,19.50
2023-03-31T22:20:43.894Z,19.50
2023-03-31T22:23:10.708Z,19.50
2023-03-31T22:25:37.365Z,19.50
2023-03-31T22:28:06.628Z,19.40
2023-03-31T22:30:33.946Z,19.50
2023-03-31T22:33:00.968Z,19.50
2023-03-31T22:35:27.633Z,19.50
2023-03-31T22:37:54.374Z,19.40
2023-03-31T22:40:21.041Z,19.50
2023-03-31T22:42:47.738Z,19.40
2023-03-31T22:45:14.366Z,19.40
2023-03-31T22:47:42.232Z,19.40
2023-03-31T22:50:10.350Z,19.40
2023-03-31T22:52:37.311Z,19.40
2023-03-31T22:55:04.555Z,19.90
2023-03-31T22:57:32.023Z,19.40
2023-03-31T22:59:58.839Z,19.40
2023-03-31T23:02:25.504Z,18.60
2023-03-31T23:04:52.177Z,19.40
2023-03-31T23:07:21.661Z,19.40
2023-03-31T23:09:48.464Z,19.80
2023-03-31T23:12:15.328Z,19.40
2023-03-31T23:14:41.945Z,19.40
2023-03-31T23:17:08.553Z,19.40
2023-03-31T23:19:35.390Z,19.40
2023-03-31T23:22:02.515Z,19.40
2023-03-31T23:24:29.913Z,19.40
2023-03-31T23:26:56.584Z,19.40
2023-03-31T23:29:23.633Z,19.40
2023-03-31T23:31:50.439Z,19.30
2023-03-31T23:34:17.222Z,19.40
2023-03-31T23:36:43.857Z,19.30
2023-03-31T23:39:10.762Z,19.30
2023-03-31T23:41:37.452Z,19.40
2023-03-31T23:44:04.590Z,19.40
2023-03-31T23:46:31.741Z,19.40
2023-03-31T23:48:58.918Z,19.30
2023-03-31T23:51:25.625Z,19.40
2023-03-31T23:53:52.420Z,19.30
2023-03-31T23:56:19.202Z,19.40
2023-03-31T23:58:45.961Z,19.30
